John H. — WAC6768 — position and weather

sailwx.info

Track history (hours):
 
Tides and Currents Weather Stations Pressure Air Temp Water Temp Dewpoint Dewpoint Depression Visibility Wind Speed Wind Dir Waves Ship Positions

John H.

Owner: CROSS SOUND FERRY SERVICE INC, NEW LOUDON, CT. More information available from US FCC via Universal Licensing System and Coast Guard Vessel Documentation Center.

Last reported at 2018-Feb-19 20:58 UTC. Time now 2018-Feb-19 21:58 UTC.
Position N 41°18' W 072°05'.

Length 70 m; draft 3.2 m.

Type: Passenger vessel. MMSI: 366934890.

Date/timePositionNaut miles runAvg speedWind from/ knotsBaromVisibWave heightAir tempDewpointWater temp
2018-Feb-19 20:58N 41°18' W 072°05'714.3
2018-Feb-19 20:30N 41°13' W 072°11'4 3.8
2018-Feb-19 19:20N 41°09' W 072°14'411.3
2018-Feb-19 19:00N 41°13' W 072°12'8 3.9
2018-Feb-19 17:05N 41°18' W 072°05'213.4
2018-Feb-19 16:56N 41°16' W 072°07'512.3
2018-Feb-19 16:31N 41°13' W 072°11'4 3.1
2018-Feb-19 15:12N 41°09' W 072°14'211.4
2018-Feb-19 15:00N 41°11' W 072°13'714.8
2018-Feb-19 14:30N 41°17' W 072°06'2 1.1
2018-Feb-19 13:01N 41°18' W 072°05'212.3
2018-Feb-19 12:52N 41°17' W 072°06'513.4
2018-Feb-19 12:30N 41°13' W 072°11'5 0.4
2018-Feb-19 01:13N 41°09' W 072°14'210.1
2018-Feb-19 01:00N 41°11' W 072°13'714.1
2018-Feb-19 00:30N 41°16' W 072°06'1 0.6
2018-Feb-18 22:58N 41°17' W 072°06'713.7
2018-Feb-18 22:26N 41°12' W 072°12'2 1.2
2018-Feb-18 21:09N 41°10' W 072°13'210.8
2018-Feb-18 21:00N 41°12' W 072°12'7 3.6
2018-Feb-18 18:59N 41°17' W 072°06'713.2
2018-Feb-18 18:28N 41°12' W 072°12'4 2.8
2018-Feb-18 17:13N 41°09' W 072°14'311.1
2018-Feb-18 16:59N 41°12' W 072°13'714.5
2018-Feb-18 16:29N 41°17' W 072°07'2 1.3
2018-Feb-18 15:09N 41°18' W 072°05'212.3
2018-Feb-18 15:00N 41°16' W 072°06'611.8
2018-Feb-18 14:29N 41°12' W 072°12'3 2.8
2018-Feb-18 13:17N 41°09' W 072°14'310.4
2018-Feb-18 13:00N 41°12' W 072°13'713.7
2018-Feb-18 12:30N 41°17' W 072°06'2 0.2
2018-Feb-18 01:02N 41°18' W 072°05'212.2
2018-Feb-18 00:55N 41°17' W 072°06'512.4
2018-Feb-18 00:29N 41°13' W 072°11'5 3.8
2018-Feb-17 23:17N 41°09' W 072°14'3 9.5
2018-Feb-17 23:00N 41°12' W 072°13'612.6
2018-Feb-17 22:30N 41°16' W 072°07'1 0.8
2018-Feb-17 20:52N 41°17' W 072°06'514.8
2018-Feb-17 20:30N 41°13' W 072°11'5 3.6
2018-Feb-17 19:15N 41°09' W 072°14'311.9
2018-Feb-17 19:00N 41°12' W 072°13'611.7
2018-Feb-17 18:30N 41°16' W 072°07'3 1.9
2018-Feb-17 17:01N 41°18' W 072°05'013.4
2018-Feb-17 16:59N 41°18' W 072°05'712.9
2018-Feb-17 16:27N 41°13' W 072°11'4 3.3
2018-Feb-17 15:12N 41°09' W 072°14'210.3
2018-Feb-17 14:59N 41°11' W 072°14'715.1
2018-Feb-17 14:30N 41°16' W 072°07'2 1.5
2018-Feb-17 13:07N 41°18' W 072°05'411.9
2018-Feb-17 12:49N 41°15' W 072°08'412.2
2018-Feb-17 12:30N 41°12' W 072°11'4 0.4
2018-Feb-17 02:56N 41°09' W 072°14'511.9
2018-Feb-17 02:30N 41°13' W 072°10'5 3.3
2018-Feb-17 00:59N 41°17' W 072°06'611.9
2018-Feb-17 00:28N 41°12' W 072°11'4 3.5
2018-Feb-16 23:21N 41°09' W 072°14'410.8
2018-Feb-16 23:00N 41°13' W 072°12'6 3.0
2018-Feb-16 20:51N 41°17' W 072°05'614.8
2018-Feb-16 20:28N 41°13' W 072°11'4 2.9
2018-Feb-16 19:12N 41°09' W 072°13'211.4
2018-Feb-16 19:00N 41°12' W 072°13'7 3.3
2018-Feb-16 16:52N 41°17' W 072°06'513.3
2018-Feb-16 16:30N 41°13' W 072°11'5 3.6
2018-Feb-16 15:12N 41°09' W 072°14'210.5
2018-Feb-16 14:59N 41°12' W 072°13'713.8
2018-Feb-16 14:30N 41°16' W 072°07'1 0.6
2018-Feb-16 12:55N 41°17' W 072°06'612.3
2018-Feb-16 12:28N 41°13' W 072°11'4 0.4
2018-Feb-16 01:18N 41°09' W 072°14'2 7.9
2018-Feb-16 01:00N 41°12' W 072°14'713.9
2018-Feb-16 00:30N 41°16' W 072°07'1 0.6
2018-Feb-15 22:45N 41°15' W 072°07'313.2
2018-Feb-15 22:30N 41°13' W 072°11'5 3.9
2018-Feb-15 21:18N 41°09' W 072°14'311.3
2018-Feb-15 21:00N 41°12' W 072°13'8 3.8
2018-Feb-15 18:54N 41°18' W 072°05'613.6
2018-Feb-15 18:30N 41°13' W 072°10'5 3.5
2018-Feb-15 17:09N 41°10' W 072°13'212.4
2018-Feb-15 16:58N 41°12' W 072°13'612.6
2018-Feb-15 16:28N 41°16' W 072°07'2 1.5
2018-Feb-15 15:01N 41°18' W 072°05'113.0
2018-Feb-15 14:55N 41°17' W 072°06'612.4
2018-Feb-15 14:28N 41°13' W 072°11'4 3.3
2018-Feb-15 13:14N 41°09' W 072°14'310.6
2018-Feb-15 13:00N 41°12' W 072°13'9 0.7
2018-Feb-15 01:01N 41°18' W 072°05'013.2
2018-Feb-15 01:00N 41°18' W 072°05'612.6
2018-Feb-15 00:30N 41°13' W 072°10'5 3.8
2018-Feb-14 23:13N 41°09' W 072°14'210.1
2018-Feb-14 23:00N 41°11' W 072°13'713.7
2018-Feb-14 22:30N 41°16' W 072°07'2 1.0
2018-Feb-14 20:54N 41°17' W 072°05'513.6
2018-Feb-14 20:30N 41°13' W 072°10'5 4.1
2018-Feb-14 19:18N 41°09' W 072°14'311.0
2018-Feb-14 19:00N 41°12' W 072°12'7 3.5
2018-Feb-14 16:55N 41°17' W 072°05'614.4
2018-Feb-14 16:29N 41°13' W 072°11'3 2.8
2018-Feb-14 15:16N 41°10' W 072°13'3 9.8
2018-Feb-14 15:00N 41°12' W 072°13'11 6.2
2018-Feb-14 13:17N 41°21' W 072°05'511.7
2018-Feb-14 12:50N 41°16' W 072°07'412.2
2018-Feb-14 12:30N 41°13' W 072°11'4 0.4
2018-Feb-14 01:15N 41°09' W 072°14'210.3
2018-Feb-14 01:00N 41°11' W 072°13'714.4
2018-Feb-14 00:30N 41°17' W 072°06'2 1.2
2018-Feb-13 23:03N 41°18' W 072°05'412.6
2018-Feb-13 22:45N 41°15' W 072°08'312.9
2018-Feb-13 22:30N 41°13' W 072°11'4 3.3
2018-Feb-13 21:14N 41°09' W 072°14'310.8
2018-Feb-13 21:00N 41°12' W 072°13'9 4.4
2018-Feb-13 19:02N 41°18' W 072°05'113.2
2018-Feb-13 18:58N 41°17' W 072°05'714.4
2018-Feb-13 18:30N 41°12' W 072°12'4 3.1
2018-Feb-13 17:19N 41°09' W 072°14'310.9
2018-Feb-13 17:00N 41°12' W 072°12'8 3.8
2018-Feb-13 15:01N 41°18' W 072°05'113.0
2018-Feb-13 14:58N 41°17' W 072°05'713.2
2018-Feb-13 14:28N 41°12' W 072°11'3 2.4
2018-Feb-13 13:08N 41°10' W 072°13'211.3
2018-Feb-13 12:59N 41°11' W 072°13'714.8
2018-Feb-13 12:30N 41°16' W 072°07'2 0.2
2018-Feb-13 01:03N 41°18' W 072°05'312.6
2018-Feb-13 00:47N 41°15' W 072°08'412.3
2018-Feb-13 00:29N 41°13' W 072°11'4 3.4
2018-Feb-12 23:14N 41°09' W 072°14'311.7
2018-Feb-12 23:01N 41°12' W 072°13'814.6
2018-Feb-12 22:30N 41°17' W 072°06'1 0.7
2018-Feb-12 21:01N 41°18' W 072°05'112.4
2018-Feb-12 20:54N 41°17' W 072°06'513.0
2018-Feb-12 20:29N 41°13' W 072°11'4 3.1
2018-Feb-12 19:11N 41°09' W 072°13'311.8
2018-Feb-12 18:57N 41°12' W 072°12'612.8
2018-Feb-12 18:30N 41°16' W 072°07'2 1.6
2018-Feb-12 17:02N 41°18' W 072°05'112.6
2018-Feb-12 16:56N 41°17' W 072°06'613.7
2018-Feb-12 16:30N 41°13' W 072°11'4 3.4
2018-Feb-12 15:17N 41°09' W 072°14'311.0
2018-Feb-12 15:00N 41°12' W 072°12'5 2.5
2018-Feb-12 12:50N 41°16' W 072°07'412.3
2018-Feb-12 12:30N 41°13' W 072°11'4 0.4
2018-Feb-12 02:19N 41°09' W 072°14'310.5
2018-Feb-12 02:00N 41°12' W 072°13'5 2.4
2018-Feb-11 23:46N 41°15' W 072°07'512.7
2018-Feb-11 23:24N 41°12' W 072°12'3 2.5
2018-Feb-11 22:14N 41°09' W 072°13'311.4
2018-Feb-11 22:00N 41°12' W 072°13'5 2.4
2018-Feb-11 19:47N 41°15' W 072°07'413.2
2018-Feb-11 19:28N 41°13' W 072°11'4 3.4
2018-Feb-11 18:18N 41°09' W 072°14'311.2
2018-Feb-11 18:01N 41°12' W 072°13'9 4.7
2018-Feb-11 16:09N 41°19' W 072°05'213.0
2018-Feb-11 15:59N 41°17' W 072°06'714.0
2018-Feb-11 15:30N 41°12' W 072°12'3 2.6
2018-Feb-11 14:16N 41°09' W 072°14'312.0
2018-Feb-11 14:00N 41°12' W 072°13'713.3
2018-Feb-11 13:30N 41°17' W 072°06'0 0.0
2018-Feb-11 00:53N 41°17' W 072°06'513.0
2018-Feb-11 00:31N 41°13' W 072°10'5 3.7
2018-Feb-10 23:10N 41°09' W 072°14'210.0
2018-Feb-10 23:00N 41°11' W 072°14'814.3
2018-Feb-10 22:29N 41°16' W 072°07'2 1.5
2018-Feb-10 21:04N 41°18' W 072°05'112.3
2018-Feb-10 20:57N 41°17' W 072°06'612.7
2018-Feb-10 20:30N 41°13' W 072°11'4 3.1
2018-Feb-10 19:11N 41°09' W 072°14'210.8
2018-Feb-10 18:59N 41°11' W 072°13'613.3
2018-Feb-10 18:30N 41°16' W 072°07'3 1.8
2018-Feb-10 17:00N 41°18' W 072°05'713.8
2018-Feb-10 16:29N 41°13' W 072°11'4 2.8
2018-Feb-10 15:10N 41°09' W 072°13'212.2
2018-Feb-10 15:00N 41°12' W 072°13'612.6
2018-Feb-10 14:29N 41°16' W 072°07'3 2.0
2018-Feb-10 13:03N 41°19' W 072°05'113.0
2018-Feb-10 12:59N 41°18' W 072°05'713.1
2018-Feb-10 12:27N 41°13' W 072°11'3 0.3
2018-Feb-10 01:14N 41°09' W 072°13'311.2
2018-Feb-10 01:00N 41°12' W 072°13'612.1
2018-Feb-10 00:30N 41°16' W 072°07'1 0.7
2018-Feb-09 22:54N 41°17' W 072°06'213.5
2018-Feb-09 22:46N 41°15' W 072°07'  
Track history (hours):
 
Tides and Currents Weather Stations Pressure Air Temp Water Temp Dewpoint Dewpoint Depression Visibility Wind Speed Wind Dir Waves Ship Positions

John H.

Owner: CROSS SOUND FERRY SERVICE INC, NEW LOUDON, CT. More information available from US FCC via Universal Licensing System and Coast Guard Vessel Documentation Center.

Last reported at 2018-Feb-19 20:58 UTC. Time now 2018-Feb-19 21:58 UTC.
Position N 41°18' W 072°05'.

Length 70 m; draft 3.2 m.

Type: Passenger vessel. MMSI: 366934890.

Date/timePositionNaut miles runAvg speedWind from/ knotsBaromVisibWave heightAir tempDewpointWater temp
2018-Feb-19 20:58N 41°18' W 072°05'714.3
2018-Feb-19 20:30N 41°13' W 072°11'4 3.8
2018-Feb-19 19:20N 41°09' W 072°14'411.3
2018-Feb-19 19:00N 41°13' W 072°12'8 3.9
2018-Feb-19 17:05N 41°18' W 072°05'213.4
2018-Feb-19 16:56N 41°16' W 072°07'512.3
2018-Feb-19 16:31N 41°13' W 072°11'4 3.1
2018-Feb-19 15:12N 41°09' W 072°14'211.4
2018-Feb-19 15:00N 41°11' W 072°13'714.8
2018-Feb-19 14:30N 41°17' W 072°06'2 1.1
2018-Feb-19 13:01N 41°18' W 072°05'212.3
2018-Feb-19 12:52N 41°17' W 072°06'513.4
2018-Feb-19 12:30N 41°13' W 072°11'5 0.4
2018-Feb-19 01:13N 41°09' W 072°14'210.1
2018-Feb-19 01:00N 41°11' W 072°13'714.1
2018-Feb-19 00:30N 41°16' W 072°06'1 0.6
2018-Feb-18 22:58N 41°17' W 072°06'713.7
2018-Feb-18 22:26N 41°12' W 072°12'2 1.2
2018-Feb-18 21:09N 41°10' W 072°13'210.8
2018-Feb-18 21:00N 41°12' W 072°12'7 3.6
2018-Feb-18 18:59N 41°17' W 072°06'713.2
2018-Feb-18 18:28N 41°12' W 072°12'4 2.8
2018-Feb-18 17:13N 41°09' W 072°14'311.1
2018-Feb-18 16:59N 41°12' W 072°13'714.5
2018-Feb-18 16:29N 41°17' W 072°07'2 1.3
2018-Feb-18 15:09N 41°18' W 072°05'212.3
2018-Feb-18 15:00N 41°16' W 072°06'611.8
2018-Feb-18 14:29N 41°12' W 072°12'3 2.8
2018-Feb-18 13:17N 41°09' W 072°14'310.4
2018-Feb-18 13:00N 41°12' W 072°13'713.7
2018-Feb-18 12:30N 41°17' W 072°06'2 0.2
2018-Feb-18 01:02N 41°18' W 072°05'212.2
2018-Feb-18 00:55N 41°17' W 072°06'512.4
2018-Feb-18 00:29N 41°13' W 072°11'5 3.8
2018-Feb-17 23:17N 41°09' W 072°14'3 9.5
2018-Feb-17 23:00N 41°12' W 072°13'612.6
2018-Feb-17 22:30N 41°16' W 072°07'1 0.8
2018-Feb-17 20:52N 41°17' W 072°06'514.8
2018-Feb-17 20:30N 41°13' W 072°11'5 3.6
2018-Feb-17 19:15N 41°09' W 072°14'311.9
2018-Feb-17 19:00N 41°12' W 072°13'611.7
2018-Feb-17 18:30N 41°16' W 072°07'3 1.9
2018-Feb-17 17:01N 41°18' W 072°05'013.4
2018-Feb-17 16:59N 41°18' W 072°05'712.9
2018-Feb-17 16:27N 41°13' W 072°11'4 3.3
2018-Feb-17 15:12N 41°09' W 072°14'210.3
2018-Feb-17 14:59N 41°11' W 072°14'715.1
2018-Feb-17 14:30N 41°16' W 072°07'2 1.5
2018-Feb-17 13:07N 41°18' W 072°05'411.9
2018-Feb-17 12:49N 41°15' W 072°08'412.2
2018-Feb-17 12:30N 41°12' W 072°11'4 0.4
2018-Feb-17 02:56N 41°09' W 072°14'511.9
2018-Feb-17 02:30N 41°13' W 072°10'5 3.3
2018-Feb-17 00:59N 41°17' W 072°06'611.9
2018-Feb-17 00:28N 41°12' W 072°11'4 3.5
2018-Feb-16 23:21N 41°09' W 072°14'410.8
2018-Feb-16 23:00N 41°13' W 072°12'6 3.0
2018-Feb-16 20:51N 41°17' W 072°05'614.8
2018-Feb-16 20:28N 41°13' W 072°11'4 2.9
2018-Feb-16 19:12N 41°09' W 072°13'211.4
2018-Feb-16 19:00N 41°12' W 072°13'7 3.3
2018-Feb-16 16:52N 41°17' W 072°06'513.3
2018-Feb-16 16:30N 41°13' W 072°11'5 3.6
2018-Feb-16 15:12N 41°09' W 072°14'210.5
2018-Feb-16 14:59N 41°12' W 072°13'713.8
2018-Feb-16 14:30N 41°16' W 072°07'1 0.6
2018-Feb-16 12:55N 41°17' W 072°06'612.3
2018-Feb-16 12:28N 41°13' W 072°11'4 0.4
2018-Feb-16 01:18N 41°09' W 072°14'2 7.9
2018-Feb-16 01:00N 41°12' W 072°14'713.9
2018-Feb-16 00:30N 41°16' W 072°07'1 0.6
2018-Feb-15 22:45N 41°15' W 072°07'313.2
2018-Feb-15 22:30N 41°13' W 072°11'5 3.9
2018-Feb-15 21:18N 41°09' W 072°14'311.3
2018-Feb-15 21:00N 41°12' W 072°13'8 3.8
2018-Feb-15 18:54N 41°18' W 072°05'613.6
2018-Feb-15 18:30N 41°13' W 072°10'5 3.5
2018-Feb-15 17:09N 41°10' W 072°13'212.4
2018-Feb-15 16:58N 41°12' W 072°13'612.6
2018-Feb-15 16:28N 41°16' W 072°07'2 1.5
2018-Feb-15 15:01N 41°18' W 072°05'113.0
2018-Feb-15 14:55N 41°17' W 072°06'612.4
2018-Feb-15 14:28N 41°13' W 072°11'4 3.3
2018-Feb-15 13:14N 41°09' W 072°14'310.6
2018-Feb-15 13:00N 41°12' W 072°13'9 0.7
2018-Feb-15 01:01N 41°18' W 072°05'013.2
2018-Feb-15 01:00N 41°18' W 072°05'612.6
2018-Feb-15 00:30N 41°13' W 072°10'5 3.8
2018-Feb-14 23:13N 41°09' W 072°14'210.1
2018-Feb-14 23:00N 41°11' W 072°13'713.7
2018-Feb-14 22:30N 41°16' W 072°07'2 1.0
2018-Feb-14 20:54N 41°17' W 072°05'513.6
2018-Feb-14 20:30N 41°13' W 072°10'5 4.1
2018-Feb-14 19:18N 41°09' W 072°14'311.0
2018-Feb-14 19:00N 41°12' W 072°12'7 3.5
2018-Feb-14 16:55N 41°17' W 072°05'614.4
2018-Feb-14 16:29N 41°13' W 072°11'3 2.8
2018-Feb-14 15:16N 41°10' W 072°13'3 9.8
2018-Feb-14 15:00N 41°12' W 072°13'11 6.2
2018-Feb-14 13:17N 41°21' W 072°05'511.7
2018-Feb-14 12:50N 41°16' W 072°07'412.2
2018-Feb-14 12:30N 41°13' W 072°11'4 0.4
2018-Feb-14 01:15N 41°09' W 072°14'210.3
2018-Feb-14 01:00N 41°11' W 072°13'714.4
2018-Feb-14 00:30N 41°17' W 072°06'2 1.2
2018-Feb-13 23:03N 41°18' W 072°05'412.6
2018-Feb-13 22:45N 41°15' W 072°08'312.9
2018-Feb-13 22:30N 41°13' W 072°11'4 3.3
2018-Feb-13 21:14N 41°09' W 072°14'310.8
2018-Feb-13 21:00N 41°12' W 072°13'9 4.4
2018-Feb-13 19:02N 41°18' W 072°05'113.2
2018-Feb-13 18:58N 41°17' W 072°05'714.4
2018-Feb-13 18:30N 41°12' W 072°12'4 3.1
2018-Feb-13 17:19N 41°09' W 072°14'310.9
2018-Feb-13 17:00N 41°12' W 072°12'8 3.8
2018-Feb-13 15:01N 41°18' W 072°05'113.0
2018-Feb-13 14:58N 41°17' W 072°05'713.2
2018-Feb-13 14:28N 41°12' W 072°11'3 2.4
2018-Feb-13 13:08N 41°10' W 072°13'211.3
2018-Feb-13 12:59N 41°11' W 072°13'714.8
2018-Feb-13 12:30N 41°16' W 072°07'2 0.2
2018-Feb-13 01:03N 41°18' W 072°05'312.6
2018-Feb-13 00:47N 41°15' W 072°08'412.3
2018-Feb-13 00:29N 41°13' W 072°11'4 3.4
2018-Feb-12 23:14N 41°09' W 072°14'311.7
2018-Feb-12 23:01N 41°12' W 072°13'814.6
2018-Feb-12 22:30N 41°17' W 072°06'1 0.7
2018-Feb-12 21:01N 41°18' W 072°05'112.4
2018-Feb-12 20:54N 41°17' W 072°06'513.0
2018-Feb-12 20:29N 41°13' W 072°11'4 3.1
2018-Feb-12 19:11N 41°09' W 072°13'311.8
2018-Feb-12 18:57N 41°12' W 072°12'612.8
2018-Feb-12 18:30N 41°16' W 072°07'2 1.6
2018-Feb-12 17:02N 41°18' W 072°05'112.6
2018-Feb-12 16:56N 41°17' W 072°06'613.7
2018-Feb-12 16:30N 41°13' W 072°11'4 3.4
2018-Feb-12 15:17N 41°09' W 072°14'311.0
2018-Feb-12 15:00N 41°12' W 072°12'5 2.5
2018-Feb-12 12:50N 41°16' W 072°07'412.3
2018-Feb-12 12:30N 41°13' W 072°11'4 0.4
2018-Feb-12 02:19N 41°09' W 072°14'310.5
2018-Feb-12 02:00N 41°12' W 072°13'5 2.4
2018-Feb-11 23:46N 41°15' W 072°07'512.7
2018-Feb-11 23:24N 41°12' W 072°12'3 2.5
2018-Feb-11 22:14N 41°09' W 072°13'311.4
2018-Feb-11 22:00N 41°12' W 072°13'5 2.4
2018-Feb-11 19:47N 41°15' W 072°07'413.2
2018-Feb-11 19:28N 41°13' W 072°11'4 3.4
2018-Feb-11 18:18N 41°09' W 072°14'311.2
2018-Feb-11 18:01N 41°12' W 072°13'9 4.7
2018-Feb-11 16:09N 41°19' W 072°05'213.0
2018-Feb-11 15:59N 41°17' W 072°06'714.0
2018-Feb-11 15:30N 41°12' W 072°12'3 2.6
2018-Feb-11 14:16N 41°09' W 072°14'312.0
2018-Feb-11 14:00N 41°12' W 072°13'713.3
2018-Feb-11 13:30N 41°17' W 072°06'0 0.0
2018-Feb-11 00:53N 41°17' W 072°06'513.0
2018-Feb-11 00:31N 41°13' W 072°10'5 3.7
2018-Feb-10 23:10N 41°09' W 072°14'210.0
2018-Feb-10 23:00N 41°11' W 072°14'814.3
2018-Feb-10 22:29N 41°16' W 072°07'2 1.5
2018-Feb-10 21:04N 41°18' W 072°05'112.3
2018-Feb-10 20:57N 41°17' W 072°06'612.7
2018-Feb-10 20:30N 41°13' W 072°11'4 3.1
2018-Feb-10 19:11N 41°09' W 072°14'210.8
2018-Feb-10 18:59N 41°11' W 072°13'613.3
2018-Feb-10 18:30N 41°16' W 072°07'3 1.8
2018-Feb-10 17:00N 41°18' W 072°05'713.8
2018-Feb-10 16:29N 41°13' W 072°11'4 2.8
2018-Feb-10 15:10N 41°09' W 072°13'212.2
2018-Feb-10 15:00N 41°12' W 072°13'612.6
2018-Feb-10 14:29N 41°16' W 072°07'3 2.0
2018-Feb-10 13:03N 41°19' W 072°05'113.0
2018-Feb-10 12:59N 41°18' W 072°05'713.1
2018-Feb-10 12:27N 41°13' W 072°11'3 0.3
2018-Feb-10 01:14N 41°09' W 072°13'311.2
2018-Feb-10 01:00N 41°12' W 072°13'612.1
2018-Feb-10 00:30N 41°16' W 072°07'1 0.7
2018-Feb-09 22:54N 41°17' W 072°06'213.5
2018-Feb-09 22:46N 41°15' W 072°07'  

Dump ship's entire track history